Main page
METAR-TAF:

METAR-TAF

Airports :

Pontoise – Cormeilles Aerodrome

Pontoise, France

latitude: 49-05-48N, longitude: 002-02-27E, elevation: 99 m

Current weather observation

The report was made 21 minutes ago, at 16:30 UTC
Wind 3 kt from the Southeast
Temperature 14°C
Humidity 88%
Pressure 1009 hPa
Visibility: 8000 m

METAR: LFPT 231630Z AUTO 14003KT 8000 NSC 14/12 Q1009

Time: 18:51 (16:51 UTC)


TAF: missing

Weather observations and forecasts of more than 4000 airports (METAR and TAF reports).

The available stations are represented by yellow and red dots on the map.

Hover mouse over dot to see the name of the station.

Then click to see weather observations and forecasts.

To change the map : click on the green buttons with a black cross to zoom in, on the green button with a dash to zoom out, or on the green arrows for adjacent maps.


METAR-TAF: